createdAt,value
2022-12-26T00:00:27.088Z,16.77
2022-12-26T00:03:00.613Z,16.35
2022-12-26T00:05:38.875Z,15.52
2022-12-26T00:08:15.283Z,15.73
2022-12-26T00:10:49.975Z,16.23
2022-12-26T00:13:38.278Z,15.82
2022-12-26T00:16:08.620Z,16.83
2022-12-26T00:21:28.566Z,15.20
2022-12-26T00:24:02.157Z,16.23
2022-12-26T00:26:46.512Z,16.05
2022-12-26T00:29:24.330Z,17.33
2022-12-26T00:31:56.339Z,16.05
2022-12-26T00:34:28.122Z,16.83
2022-12-26T00:37:07.776Z,17.38
2022-12-26T00:39:37.478Z,16.83
2022-12-26T00:42:07.878Z,17.73
2022-12-26T00:44:35.059Z,16.73
2022-12-26T00:47:04.771Z,16.23
2022-12-26T00:50:13.676Z,17.70
2022-12-26T00:52:42.900Z,16.88
2022-12-26T00:55:20.223Z,16.05
2022-12-26T00:58:02.543Z,18.13
2022-12-26T01:00:33.644Z,17.67
2022-12-26T01:03:03.198Z,16.75
2022-12-26T01:05:35.553Z,18.27
2022-12-26T01:08:22.825Z,17.00
2022-12-26T01:10:53.846Z,18.23
2022-12-26T01:13:32.329Z,17.47
2022-12-26T01:16:07.959Z,17.95
2022-12-26T01:18:38.176Z,18.02
2022-12-26T01:21:17.030Z,18.73
2022-12-26T01:23:49.508Z,19.47
2022-12-26T01:26:20.260Z,19.27
2022-12-26T01:28:53.205Z,19.65
2022-12-26T01:31:29.976Z,20.00
2022-12-26T01:34:04.533Z,19.25
2022-12-26T01:37:00.919Z,19.77
2022-12-26T01:39:29.268Z,19.73
2022-12-26T01:42:19.500Z,18.88
2022-12-26T01:45:11.110Z,18.80
2022-12-26T01:47:43.504Z,19.25
2022-12-26T01:50:50.203Z,19.35
2022-12-26T01:53:33.128Z,17.97
2022-12-26T01:56:05.740Z,17.65
2022-12-26T01:58:50.469Z,17.38
2022-12-26T02:01:35.534Z,16.42
2022-12-26T02:04:25.873Z,17.73
2022-12-26T02:06:53.175Z,16.63
2022-12-26T02:09:22.607Z,17.02
2022-12-26T02:12:36.185Z,16.20
2022-12-26T02:14:58.034Z,16.52
2022-12-26T02:17:34.842Z,16.95
2022-12-26T02:20:26.215Z,17.13
2022-12-26T02:23:30.449Z,17.73
2022-12-26T02:30:52.300Z,16.65
2022-12-26T02:33:21.758Z,16.37
2022-12-26T02:36:25.953Z,17.77
2022-12-26T02:39:45.500Z,17.83
2022-12-26T02:42:25.940Z,17.52
2022-12-26T02:45:57.876Z,16.13
2022-12-26T02:48:57.798Z,15.23
2022-12-26T02:52:01.641Z,16.03
2022-12-26T02:55:25.947Z,15.60
2022-12-26T02:58:40.059Z,17.48
2022-12-26T03:01:53.862Z,16.48
2022-12-26T03:04:49.620Z,16.23
2022-12-26T03:08:15.488Z,16.48
2022-12-26T03:11:10.773Z,16.52
2022-12-26T03:13:48.631Z,16.00
2022-12-26T03:16:36.329Z,16.67
2022-12-26T03:19:17.847Z,16.65
2022-12-26T03:22:30.321Z,18.15
2022-12-26T03:25:24.795Z,19.50
2022-12-26T03:27:54.847Z,18.25
2022-12-26T03:30:52.473Z,18.85
2022-12-26T03:33:47.537Z,18.73
2022-12-26T03:36:57.559Z,18.08
2022-12-26T03:40:45.531Z,18.40
2022-12-26T03:43:43.838Z,17.90
2022-12-26T03:47:04.506Z,19.13
2022-12-26T03:50:02.003Z,20.63
2022-12-26T03:53:13.695Z,18.65
2022-12-26T03:56:13.807Z,19.35
2022-12-26T03:59:15.717Z,19.17
2022-12-26T04:02:11.166Z,20.98
2022-12-26T04:05:08.411Z,20.77
2022-12-26T04:08:05.580Z,19.83
2022-12-26T04:11:21.359Z,19.88
2022-12-26T04:14:27.381Z,19.33
2022-12-26T04:17:24.626Z,20.05
2022-12-26T04:20:20.447Z,21.50
2022-12-26T04:23:16.852Z,19.33
2022-12-26T04:26:26.177Z,21.38
2022-12-26T04:42:10.166Z,20.73
2022-12-26T04:44:51.114Z,19.67
2022-12-26T04:47:23.871Z,18.92
2022-12-26T04:50:16.545Z,20.60
2022-12-26T04:52:58.758Z,19.23
2022-12-26T04:55:41.791Z,20.85
2022-12-26T04:58:12.900Z,21.13
2022-12-26T05:01:08.223Z,21.23
2022-12-26T05:04:19.188Z,21.40
2022-12-26T05:07:11.562Z,20.87
2022-12-26T05:09:51.657Z,21.55
2022-12-26T05:12:21.051Z,20.27
2022-12-26T05:14:52.378Z,20.08
2022-12-26T05:17:45.938Z,19.40
2022-12-26T05:20:36.940Z,20.50
2022-12-26T05:23:44.392Z,21.23
2022-12-26T05:26:38.871Z,20.45
2022-12-26T05:29:18.530Z,20.20
2022-12-26T05:31:48.703Z,21.80
2022-12-26T05:34:29.384Z,20.30
2022-12-26T05:37:04.687Z,20.10
2022-12-26T05:39:40.891Z,20.00
2022-12-26T05:42:08.074Z,19.55
2022-12-26T05:44:40.450Z,19.27
2022-12-26T05:51:55.183Z,19.27
2022-12-26T05:54:24.966Z,19.40
2022-12-26T05:57:00.496Z,21.02
2022-12-26T05:59:45.126Z,19.58
2022-12-26T06:02:12.338Z,20.70
2022-12-26T06:04:42.764Z,20.63
2022-12-26T06:07:24.712Z,22.90
2022-12-26T06:09:53.434Z,20.75
2022-12-26T06:12:20.610Z,21.35
2022-12-26T06:14:53.729Z,21.20
2022-12-26T06:17:32.658Z,19.83
2022-12-26T06:24:30.338Z,19.23
2022-12-26T06:27:04.986Z,20.50
2022-12-26T06:29:44.389Z,20.20
2022-12-26T06:32:22.086Z,22.00
2022-12-26T06:35:12.817Z,20.98
2022-12-26T06:37:51.227Z,20.40
2022-12-26T06:40:28.268Z,21.25
2022-12-26T06:42:59.760Z,20.43
2022-12-26T06:45:32.837Z,20.20
2022-12-26T06:48:16.509Z,19.95
2022-12-26T06:50:47.889Z,22.10
2022-12-26T06:53:22.938Z,20.55
2022-12-26T06:56:09.559Z,20.73
2022-12-26T06:58:42.333Z,19.73
2022-12-26T07:01:42.060Z,21.73
2022-12-26T07:05:48.908Z,20.65
2022-12-26T07:07:27.359Z,20.52
2022-12-26T07:09:59.513Z,21.63
2022-12-26T07:12:29.447Z,22.35
2022-12-26T07:15:04.306Z,22.73
2022-12-26T07:17:31.583Z,23.58
2022-12-26T07:20:08.269Z,23.48
2022-12-26T07:22:38.816Z,23.67
2022-12-26T07:25:16.153Z,23.95
2022-12-26T07:27:44.828Z,23.48
2022-12-26T07:30:14.448Z,24.27
2022-12-26T07:32:45.754Z,24.25
2022-12-26T07:35:19.348Z,25.53
2022-12-26T07:37:55.165Z,26.15
2022-12-26T07:40:29.256Z,27.73
2022-12-26T07:43:09.282Z,26.50
2022-12-26T07:45:41.880Z,26.10
2022-12-26T07:48:21.104Z,27.27
2022-12-26T07:50:52.159Z,25.73
2022-12-26T07:53:24.972Z,23.85
2022-12-26T07:56:12.144Z,24.25
2022-12-26T07:58:39.344Z,22.58
2022-12-26T08:01:15.984Z,23.37
2022-12-26T08:03:45.639Z,22.50
2022-12-26T08:06:51.878Z,22.85
2022-12-26T08:09:32.062Z,23.85
2022-12-26T08:12:06.201Z,22.15
2022-12-26T08:14:44.449Z,21.80
2022-12-26T08:17:26.088Z,21.42
2022-12-26T08:20:00.184Z,21.55
2022-12-26T08:22:35.471Z,21.08
2022-12-26T08:25:22.262Z,19.80
2022-12-26T08:27:51.707Z,20.10
2022-12-26T08:30:34.649Z,19.80
2022-12-26T08:33:06.627Z,19.02
2022-12-26T08:35:35.568Z,19.63
2022-12-26T08:38:13.731Z,19.50
2022-12-26T08:40:43.685Z,19.48
2022-12-26T08:43:45.004Z,18.40
2022-12-26T08:46:12.855Z,17.05
2022-12-26T08:48:56.335Z,17.10
2022-12-26T08:51:31.174Z,16.95
2022-12-26T08:53:58.431Z,17.65
2022-12-26T08:56:36.514Z,17.37
2022-12-26T08:59:11.487Z,17.05
2022-12-26T09:01:40.922Z,17.35
2022-12-26T09:04:12.969Z,17.20
2022-12-26T09:06:48.716Z,16.30
2022-12-26T09:09:25.228Z,16.80
2022-12-26T09:12:06.394Z,14.95
2022-12-26T09:14:43.698Z,14.95
2022-12-26T09:17:14.137Z,14.75
2022-12-26T09:19:48.459Z,15.07
2022-12-26T09:22:36.121Z,13.60
2022-12-26T09:25:04.608Z,14.77
2022-12-26T09:27:37.403Z,14.57
2022-12-26T09:30:12.907Z,14.05
2022-12-26T09:32:47.147Z,12.65
2022-12-26T09:35:19.150Z,13.13
2022-12-26T09:37:52.469Z,13.13
2022-12-26T09:40:28.542Z,12.35
2022-12-26T09:43:11.062Z,12.75
2022-12-26T09:46:07.117Z,12.27
2022-12-26T09:48:59.971Z,12.03
2022-12-26T09:51:32.447Z,11.70
2022-12-26T09:57:02.404Z,10.45
2022-12-26T09:59:49.763Z,10.15
2022-12-26T10:02:29.010Z,9.43
2022-12-26T10:05:01.743Z,10.38
2022-12-26T10:07:50.712Z,10.80
2022-12-26T10:10:35.374Z,10.77
2022-12-26T10:13:29.366Z,9.30
2022-12-26T10:16:08.342Z,9.10
2022-12-26T10:18:43.320Z,9.80
2022-12-26T10:21:32.868Z,10.10
2022-12-26T10:24:19.746Z,9.15
2022-12-26T10:27:23.558Z,9.00
2022-12-26T10:30:02.149Z,9.00
2022-12-26T10:32:45.614Z,9.77
2022-12-26T10:35:39.371Z,8.52
2022-12-26T10:38:31.494Z,8.55
2022-12-26T10:41:21.589Z,7.78
2022-12-26T10:43:53.829Z,7.87
2022-12-26T10:46:37.065Z,8.73
2022-12-26T10:49:13.380Z,7.82
2022-12-26T10:51:43.429Z,7.60
2022-12-26T10:54:18.276Z,7.85
2022-12-26T10:56:54.828Z,8.13
2022-12-26T10:59:40.832Z,6.80
2022-12-26T11:02:32.997Z,6.55
2022-12-26T11:05:33.247Z,6.78
2022-12-26T11:08:28.027Z,6.22
2022-12-26T11:15:29.674Z,6.30
2022-12-26T11:18:24.594Z,5.93
2022-12-26T11:21:14.775Z,6.68
2022-12-26T11:23:46.140Z,5.75
2022-12-26T11:26:27.583Z,5.17
2022-12-26T11:29:21.999Z,5.40
2022-12-26T11:32:00.436Z,5.55
2022-12-26T11:34:37.525Z,5.30
2022-12-26T11:37:28.443Z,4.80
2022-12-26T11:40:02.608Z,5.60
2022-12-26T11:42:35.040Z,5.22
2022-12-26T11:45:24.676Z,5.32
2022-12-26T11:48:03.233Z,4.95
2022-12-26T11:50:41.960Z,5.13
2022-12-26T11:53:17.847Z,4.97
2022-12-26T11:56:06.681Z,4.40
2022-12-26T11:58:39.586Z,5.03
2022-12-26T12:01:18.496Z,5.32
2022-12-26T12:04:02.238Z,5.28
2022-12-26T12:06:47.586Z,4.87
2022-12-26T12:09:37.693Z,5.10
2022-12-26T12:12:27.552Z,4.80
2022-12-26T12:15:25.222Z,4.22
2022-12-26T12:18:18.621Z,3.85
2022-12-26T12:21:12.769Z,4.00
2022-12-26T12:24:25.592Z,4.18
2022-12-26T12:27:09.884Z,3.60
2022-12-26T12:30:02.274Z,3.63
2022-12-26T12:35:46.581Z,4.00
2022-12-26T12:38:35.125Z,3.83
2022-12-26T12:41:44.496Z,3.63
2022-12-26T12:44:55.793Z,4.22
2022-12-26T12:47:45.482Z,3.85
2022-12-26T12:50:30.443Z,3.47
2022-12-26T12:53:48.678Z,3.65
2022-12-26T12:56:58.919Z,3.53
2022-12-26T12:59:44.749Z,4.22
2022-12-26T13:02:27.369Z,3.97
2022-12-26T13:05:24.467Z,3.63
2022-12-26T13:07:57.847Z,4.57
2022-12-26T13:10:38.210Z,4.20
2022-12-26T13:13:23.048Z,3.90
2022-12-26T13:15:58.615Z,3.97
2022-12-26T13:18:32.365Z,3.67
2022-12-26T13:21:05.155Z,3.63
2022-12-26T13:24:05.684Z,3.95
2022-12-26T13:26:46.949Z,4.13
2022-12-26T13:29:32.089Z,3.42
2022-12-26T13:32:37.075Z,3.63
2022-12-26T13:35:05.674Z,4.00
2022-12-26T13:37:37.262Z,3.55
2022-12-26T13:40:30.595Z,3.83
2022-12-26T13:43:34.673Z,4.15
2022-12-26T13:46:05.598Z,3.50
2022-12-26T13:48:35.419Z,3.70
2022-12-26T13:51:07.211Z,3.65
2022-12-26T13:53:45.244Z,3.50
2022-12-26T13:56:28.401Z,3.10
2022-12-26T13:59:02.154Z,2.90
2022-12-26T14:06:10.689Z,3.92
2022-12-26T14:09:20.188Z,3.65
2022-12-26T14:12:01.715Z,4.35
2022-12-26T14:14:42.157Z,3.83
2022-12-26T14:17:23.421Z,3.65
2022-12-26T14:20:38.821Z,4.03
2022-12-26T14:23:26.246Z,3.30
2022-12-26T14:26:11.351Z,4.90
2022-12-26T14:29:01.524Z,4.73
2022-12-26T14:31:50.335Z,5.45
2022-12-26T14:34:35.046Z,5.32
2022-12-26T14:37:39.161Z,4.25
2022-12-26T14:40:42.826Z,3.92
2022-12-26T14:43:39.490Z,4.40
2022-12-26T14:46:38.639Z,4.45
2022-12-26T14:49:39.124Z,4.60
2022-12-26T14:52:44.573Z,3.70
2022-12-26T14:55:51.042Z,4.55
2022-12-26T14:58:23.851Z,4.00
2022-12-26T15:01:00.746Z,4.65
2022-12-26T15:03:35.890Z,4.50
2022-12-26T15:06:21.933Z,4.50
2022-12-26T15:09:09.923Z,5.22
2022-12-26T15:11:49.366Z,5.53
2022-12-26T15:14:42.532Z,5.38
2022-12-26T15:17:36.371Z,5.10
2022-12-26T15:20:36.730Z,4.75
2022-12-26T15:23:26.878Z,5.05
2022-12-26T15:26:15.680Z,5.47
2022-12-26T15:29:04.204Z,5.10
2022-12-26T15:31:56.197Z,6.15
2022-12-26T15:34:42.011Z,6.32
2022-12-26T15:37:21.741Z,5.75
2022-12-26T15:41:11.263Z,6.40
2022-12-26T15:44:39.997Z,7.38
2022-12-26T15:47:23.058Z,7.03
2022-12-26T15:50:26.377Z,7.95
2022-12-26T15:53:12.772Z,7.88
2022-12-26T15:56:13.114Z,8.00
2022-12-26T15:59:09.339Z,7.32
2022-12-26T16:01:42.917Z,7.10
2022-12-26T16:04:24.936Z,7.13
2022-12-26T16:07:16.775Z,6.88
2022-12-26T16:09:49.792Z,6.97
2022-12-26T16:12:35.346Z,7.00
2022-12-26T16:15:16.801Z,7.18
2022-12-26T16:17:46.627Z,7.05
2022-12-26T16:20:54.430Z,5.82
2022-12-26T16:23:24.778Z,6.17
2022-12-26T16:25:58.599Z,6.13
2022-12-26T16:28:48.321Z,5.45
2022-12-26T16:31:25.907Z,5.10
2022-12-26T16:34:01.265Z,5.43
2022-12-26T16:36:43.386Z,5.60
2022-12-26T16:39:13.327Z,5.60
2022-12-26T16:41:59.195Z,5.53
2022-12-26T16:44:33.163Z,5.22
2022-12-26T16:47:09.330Z,4.82
2022-12-26T16:49:43.989Z,4.90
2022-12-26T16:52:35.205Z,4.28
2022-12-26T16:55:48.991Z,4.60
2022-12-26T16:58:28.879Z,4.15
2022-12-26T17:01:18.959Z,3.40
2022-12-26T17:03:56.183Z,4.00
2022-12-26T17:06:38.517Z,4.03
2022-12-26T17:09:10.791Z,3.40
2022-12-26T17:12:09.191Z,3.70
2022-12-26T17:14:56.390Z,3.45
2022-12-26T17:17:52.357Z,3.50
2022-12-26T17:20:25.932Z,3.55
2022-12-26T17:23:01.652Z,3.50
2022-12-26T17:25:35.954Z,3.95
2022-12-26T17:28:09.383Z,4.20
2022-12-26T17:30:46.812Z,4.40
2022-12-26T17:33:21.491Z,3.90
2022-12-26T17:36:52.520Z,4.13
2022-12-26T17:39:07.268Z,4.25
2022-12-26T17:41:54.267Z,4.28
2022-12-26T18:02:16.920Z,3.60
2022-12-26T18:04:49.430Z,3.57
2022-12-26T18:07:31.682Z,3.67
2022-12-26T18:10:05.655Z,3.72
2022-12-26T18:12:37.702Z,3.75
2022-12-26T18:15:25.244Z,4.10
2022-12-26T18:18:08.764Z,3.70
2022-12-26T18:20:36.917Z,3.75
2022-12-26T18:23:09.860Z,3.78
2022-12-26T18:25:54.165Z,4.00
2022-12-26T18:28:29.525Z,3.80
2022-12-26T18:30:58.879Z,4.40
2022-12-26T18:33:27.322Z,4.07
2022-12-26T18:36:04.415Z,3.85
2022-12-26T18:38:43.835Z,4.00
2022-12-26T18:41:20.128Z,3.95
2022-12-26T18:43:58.035Z,4.20
2022-12-26T18:46:31.758Z,4.13
2022-12-26T18:49:07.475Z,4.22
2022-12-26T18:51:41.880Z,3.85
2022-12-26T18:54:11.850Z,3.83
2022-12-26T18:56:43.747Z,3.80
2022-12-26T18:59:17.453Z,3.75
2022-12-26T19:01:53.700Z,3.72
2022-12-26T19:04:27.156Z,4.40
2022-12-26T19:07:03.404Z,3.85
2022-12-26T19:09:33.586Z,4.03
2022-12-26T19:12:07.299Z,3.72
2022-12-26T19:14:41.906Z,4.10
2022-12-26T19:17:19.798Z,4.43
2022-12-26T19:19:47.834Z,4.03
2022-12-26T19:22:27.704Z,4.67
2022-12-26T19:24:58.053Z,4.20
2022-12-26T19:27:41.177Z,4.28
2022-12-26T19:30:17.171Z,4.18
2022-12-26T19:32:47.273Z,4.22
2022-12-26T19:35:27.618Z,4.30
2022-12-26T19:37:57.989Z,4.65
2022-12-26T19:40:30.271Z,4.00
2022-12-26T19:43:08.985Z,4.13
2022-12-26T19:45:47.381Z,4.00
2022-12-26T19:48:21.327Z,4.20
2022-12-26T19:51:06.747Z,4.40
2022-12-26T19:53:49.584Z,4.15
2022-12-26T19:56:20.532Z,4.82
2022-12-26T19:58:56.859Z,4.93
2022-12-26T20:01:31.262Z,4.67
2022-12-26T20:04:03.544Z,4.25
2022-12-26T20:06:35.183Z,4.30
2022-12-26T20:09:09.855Z,4.35
2022-12-26T20:11:43.455Z,4.40
2022-12-26T20:14:21.962Z,3.70
2022-12-26T20:17:11.223Z,4.22
2022-12-26T20:19:54.664Z,4.18
2022-12-26T20:25:23.779Z,4.80
2022-12-26T20:28:02.059Z,4.10
2022-12-26T20:30:42.632Z,3.88
2022-12-26T20:33:18.103Z,3.92
2022-12-26T20:35:47.050Z,3.78
2022-12-26T20:38:20.821Z,3.75
2022-12-26T20:41:05.679Z,4.60
2022-12-26T20:43:51.583Z,4.10
2022-12-26T20:46:27.688Z,2.80
2022-12-26T20:48:58.021Z,2.90
2022-12-26T20:51:36.951Z,3.97
2022-12-26T20:54:08.830Z,3.73
2022-12-26T20:56:49.629Z,3.45
2022-12-26T20:59:24.372Z,3.75
2022-12-26T21:02:04.508Z,3.25
2022-12-26T21:04:33.228Z,3.35
2022-12-26T21:07:02.260Z,3.80
2022-12-26T21:09:34.576Z,3.42
2022-12-26T21:12:09.196Z,3.95
2022-12-26T21:14:42.287Z,3.55
2022-12-26T21:17:19.738Z,3.33
2022-12-26T21:20:02.086Z,3.10
2022-12-26T21:22:32.070Z,3.10
2022-12-26T21:25:08.279Z,3.38
2022-12-26T21:27:42.950Z,3.33
2022-12-26T21:30:20.649Z,3.58
2022-12-26T21:38:10.873Z,3.65
2022-12-26T21:40:47.339Z,3.30
2022-12-26T21:43:27.142Z,3.50
2022-12-26T21:46:02.944Z,3.25
2022-12-26T21:48:41.260Z,3.27
2022-12-26T21:51:15.679Z,3.50
2022-12-26T21:53:49.009Z,3.53
2022-12-26T21:56:18.552Z,3.33
2022-12-26T21:59:10.311Z,3.58
2022-12-26T22:01:45.576Z,3.37
2022-12-26T22:04:23.784Z,3.72
2022-12-26T22:07:00.247Z,3.53
2022-12-26T22:09:38.224Z,3.33
2022-12-26T22:12:34.660Z,3.78
2022-12-26T22:15:07.821Z,3.33
2022-12-26T22:17:39.553Z,4.10
2022-12-26T22:20:07.336Z,3.42
2022-12-26T22:22:37.224Z,3.88
2022-12-26T22:25:05.726Z,3.58
2022-12-26T22:27:42.271Z,3.20
2022-12-26T22:30:17.549Z,3.17
2022-12-26T22:33:00.621Z,2.95
2022-12-26T22:35:32.418Z,3.53
2022-12-26T22:38:06.374Z,2.60
2022-12-26T22:40:46.298Z,3.07
2022-12-26T22:43:17.943Z,2.83
2022-12-26T22:45:52.688Z,2.42
2022-12-26T22:52:40.858Z,2.08
2022-12-26T22:55:13.718Z,1.80
2022-12-26T22:57:41.832Z,2.05
2022-12-26T23:00:18.721Z,1.60
2022-12-26T23:02:49.515Z,1.65
2022-12-26T23:05:26.665Z,1.88
2022-12-26T23:08:00.772Z,1.10
2022-12-26T23:10:33.756Z,1.20
2022-12-26T23:13:01.629Z,0.90
2022-12-26T23:15:33.452Z,1.27
2022-12-26T23:18:40.117Z,1.10
2022-12-26T23:21:39.451Z,0.93
2022-12-26T23:24:11.710Z,1.20
2022-12-26T23:26:46.631Z,1.00
2022-12-26T23:29:36.537Z,1.13
2022-12-26T23:32:15.209Z,1.10
2022-12-26T23:34:44.584Z,1.00
2022-12-26T23:37:13.733Z,0.80
2022-12-26T23:39:46.455Z,0.90
2022-12-26T23:42:32.181Z,1.00
2022-12-26T23:45:14.696Z,0.70
2022-12-26T23:47:47.949Z,0.97
2022-12-26T23:50:30.135Z,1.00
2022-12-26T23:53:03.192Z,0.75
2022-12-26T23:55:37.032Z,0.68
2022-12-26T23:58:06.565Z,0.60
